sensor_id;sensor_type;location;lat;lon;timestamp;P1;durP1;ratioP1;P2;durP2;ratioP2
7045;SDS011;3564;53.326;10.356;2022-11-15T00:00:05;22.10;;;16.37;;
7045;SDS011;3564;53.326;10.356;2022-11-15T00:02:31;21.57;;;15.67;;
7045;SDS011;3564;53.326;10.356;2022-11-15T00:04:56;24.50;;;15.50;;
7045;SDS011;3564;53.326;10.356;2022-11-15T00:07:22;20.70;;;15.60;;
7045;SDS011;3564;53.326;10.356;2022-11-15T00:09:48;24.53;;;16.60;;
7045;SDS011;3564;53.326;10.356;2022-11-15T00:12:13;23.20;;;15.93;;
7045;SDS011;3564;53.326;10.356;2022-11-15T00:14:40;24.17;;;16.80;;
7045;SDS011;3564;53.326;10.356;2022-11-15T00:17:06;22.83;;;15.30;;
7045;SDS011;3564;53.326;10.356;2022-11-15T00:19:31;22.43;;;16.43;;
7045;SDS011;3564;53.326;10.356;2022-11-15T00:21:57;23.03;;;15.17;;
7045;SDS011;3564;53.326;10.356;2022-11-15T00:24:22;21.70;;;15.10;;
7045;SDS011;3564;53.326;10.356;2022-11-15T00:26:48;22.40;;;15.43;;
7045;SDS011;3564;53.326;10.356;2022-11-15T00:29:13;17.63;;;14.30;;
7045;SDS011;3564;53.326;10.356;2022-11-15T00:31:39;21.20;;;15.07;;
7045;SDS011;3564;53.326;10.356;2022-11-15T00:34:05;20.60;;;15.63;;
7045;SDS011;3564;53.326;10.356;2022-11-15T00:36:32;20.13;;;15.57;;
7045;SDS011;3564;53.326;10.356;2022-11-15T00:38:59;19.40;;;14.47;;
7045;SDS011;3564;53.326;10.356;2022-11-15T00:41:25;21.67;;;15.87;;
7045;SDS011;3564;53.326;10.356;2022-11-15T00:43:50;23.60;;;16.23;;
7045;SDS011;3564;53.326;10.356;2022-11-15T00:46:16;22.27;;;15.93;;
7045;SDS011;3564;53.326;10.356;2022-11-15T00:48:41;22.07;;;16.03;;
7045;SDS011;3564;53.326;10.356;2022-11-15T00:51:07;20.20;;;14.87;;
7045;SDS011;3564;53.326;10.356;2022-11-15T00:53:32;23.20;;;15.40;;
7045;SDS011;3564;53.326;10.356;2022-11-15T00:55:58;20.47;;;15.23;;
7045;SDS011;3564;53.326;10.356;2022-11-15T00:58:24;21.67;;;15.63;;
7045;SDS011;3564;53.326;10.356;2022-11-15T01:00:49;21.50;;;15.57;;
7045;SDS011;3564;53.326;10.356;2022-11-15T01:03:15;20.13;;;15.57;;
7045;SDS011;3564;53.326;10.356;2022-11-15T01:05:40;21.83;;;15.97;;
7045;SDS011;3564;53.326;10.356;2022-11-15T01:08:06;21.77;;;14.90;;
7045;SDS011;3564;53.326;10.356;2022-11-15T01:10:36;22.97;;;14.67;;
7045;SDS011;3564;53.326;10.356;2022-11-15T01:13:02;20.27;;;14.43;;
7045;SDS011;3564;53.326;10.356;2022-11-15T01:15:27;19.90;;;15.03;;
7045;SDS011;3564;53.326;10.356;2022-11-15T01:17:53;19.90;;;14.37;;
7045;SDS011;3564;53.326;10.356;2022-11-15T01:20:19;21.27;;;15.37;;
7045;SDS011;3564;53.326;10.356;2022-11-15T01:22:45;18.03;;;14.30;;
7045;SDS011;3564;53.326;10.356;2022-11-15T01:25:11;20.43;;;15.03;;
7045;SDS011;3564;53.326;10.356;2022-11-15T01:27:36;22.13;;;14.67;;
7045;SDS011;3564;53.326;10.356;2022-11-15T01:30:02;18.40;;;14.33;;
7045;SDS011;3564;53.326;10.356;2022-11-15T01:32:29;20.63;;;15.17;;
7045;SDS011;3564;53.326;10.356;2022-11-15T01:34:55;17.07;;;13.20;;
7045;SDS011;3564;53.326;10.356;2022-11-15T01:37:20;22.00;;;14.47;;
7045;SDS011;3564;53.326;10.356;2022-11-15T01:39:46;18.73;;;14.60;;
7045;SDS011;3564;53.326;10.356;2022-11-15T01:42:12;21.10;;;14.17;;
7045;SDS011;3564;53.326;10.356;2022-11-15T01:44:40;19.87;;;14.70;;
7045;SDS011;3564;53.326;10.356;2022-11-15T01:47:17;17.70;;;13.87;;
7045;SDS011;3564;53.326;10.356;2022-11-15T01:50:00;18.83;;;14.40;;
7045;SDS011;3564;53.326;10.356;2022-11-15T01:52:30;19.23;;;15.20;;
7045;SDS011;3564;53.326;10.356;2022-11-15T01:54:59;18.47;;;14.00;;
7045;SDS011;3564;53.326;10.356;2022-11-15T01:57:30;19.13;;;14.10;;
7045;SDS011;3564;53.326;10.356;2022-11-15T01:59:55;19.87;;;14.87;;
7045;SDS011;3564;53.326;10.356;2022-11-15T02:02:22;20.83;;;13.67;;
7045;SDS011;3564;53.326;10.356;2022-11-15T02:04:48;20.17;;;13.83;;
7045;SDS011;3564;53.326;10.356;2022-11-15T02:07:15;19.03;;;13.73;;
7045;SDS011;3564;53.326;10.356;2022-11-15T02:09:42;18.77;;;13.47;;
7045;SDS011;3564;53.326;10.356;2022-11-15T02:12:09;19.30;;;13.77;;
7045;SDS011;3564;53.326;10.356;2022-11-15T02:14:38;20.17;;;13.77;;
7045;SDS011;3564;53.326;10.356;2022-11-15T02:20:11;19.20;;;13.97;;
7045;SDS011;3564;53.326;10.356;2022-11-15T02:34:39;17.83;;;12.77;;
7045;SDS011;3564;53.326;10.356;2022-11-15T02:39:51;16.37;;;12.73;;
7045;SDS011;3564;53.326;10.356;2022-11-15T02:42:44;15.40;;;11.80;;
7045;SDS011;3564;53.326;10.356;2022-11-15T02:45:35;16.13;;;11.67;;
7045;SDS011;3564;53.326;10.356;2022-11-15T02:48:05;16.57;;;12.10;;
7045;SDS011;3564;53.326;10.356;2022-11-15T02:50:34;16.97;;;11.50;;
7045;SDS011;3564;53.326;10.356;2022-11-15T02:52:59;16.03;;;12.43;;
7045;SDS011;3564;53.326;10.356;2022-11-15T02:55:35;18.73;;;13.20;;
7045;SDS011;3564;53.326;10.356;2022-11-15T03:06:56;14.73;;;11.60;;
7045;SDS011;3564;53.326;10.356;2022-11-15T03:09:35;19.13;;;12.90;;
7045;SDS011;3564;53.326;10.356;2022-11-15T03:15:41;16.17;;;12.13;;
7045;SDS011;3564;53.326;10.356;2022-11-15T03:17:55;15.70;;;11.20;;
7045;SDS011;3564;53.326;10.356;2022-11-15T03:20:29;18.03;;;13.10;;
7045;SDS011;3564;53.326;10.356;2022-11-15T03:22:56;16.20;;;12.37;;
7045;SDS011;3564;53.326;10.356;2022-11-15T03:25:34;15.80;;;12.07;;
7045;SDS011;3564;53.326;10.356;2022-11-15T03:28:05;14.93;;;11.00;;
7045;SDS011;3564;53.326;10.356;2022-11-15T03:30:34;15.73;;;11.07;;
7045;SDS011;3564;53.326;10.356;2022-11-15T03:33:03;17.87;;;11.87;;
7045;SDS011;3564;53.326;10.356;2022-11-15T03:35:32;13.77;;;11.50;;
7045;SDS011;3564;53.326;10.356;2022-11-15T03:40:42;13.47;;;10.93;;
7045;SDS011;3564;53.326;10.356;2022-11-15T03:43:41;15.43;;;11.00;;
7045;SDS011;3564;53.326;10.356;2022-11-15T03:46:32;14.37;;;11.17;;
7045;SDS011;3564;53.326;10.356;2022-11-15T03:49:15;17.57;;;11.27;;
7045;SDS011;3564;53.326;10.356;2022-11-15T03:51:47;18.67;;;11.23;;
7045;SDS011;3564;53.326;10.356;2022-11-15T03:54:13;14.43;;;10.90;;
7045;SDS011;3564;53.326;10.356;2022-11-15T03:56:39;16.07;;;11.33;;
7045;SDS011;3564;53.326;10.356;2022-11-15T03:59:04;15.00;;;11.13;;
7045;SDS011;3564;53.326;10.356;2022-11-15T04:01:30;16.20;;;11.07;;
7045;SDS011;3564;53.326;10.356;2022-11-15T04:03:55;15.17;;;11.50;;
7045;SDS011;3564;53.326;10.356;2022-11-15T04:06:21;18.67;;;11.20;;
7045;SDS011;3564;53.326;10.356;2022-11-15T04:08:46;17.37;;;12.30;;
7045;SDS011;3564;53.326;10.356;2022-11-15T04:11:12;15.80;;;11.33;;
7045;SDS011;3564;53.326;10.356;2022-11-15T04:13:37;15.37;;;10.87;;
7045;SDS011;3564;53.326;10.356;2022-11-15T04:16:03;15.80;;;11.67;;
7045;SDS011;3564;53.326;10.356;2022-11-15T04:18:29;16.97;;;11.50;;
7045;SDS011;3564;53.326;10.356;2022-11-15T04:20:54;15.20;;;10.80;;
7045;SDS011;3564;53.326;10.356;2022-11-15T04:23:38;14.87;;;11.57;;
7045;SDS011;3564;53.326;10.356;2022-11-15T04:26:22;14.40;;;11.03;;
7045;SDS011;3564;53.326;10.356;2022-11-15T04:28:48;13.67;;;11.10;;
7045;SDS011;3564;53.326;10.356;2022-11-15T04:31:32;15.90;;;11.37;;
7045;SDS011;3564;53.326;10.356;2022-11-15T04:33:58;16.03;;;11.60;;
7045;SDS011;3564;53.326;10.356;2022-11-15T04:36:24;16.43;;;12.20;;
7045;SDS011;3564;53.326;10.356;2022-11-15T04:39:08;16.10;;;11.60;;
7045;SDS011;3564;53.326;10.356;2022-11-15T04:41:34;15.53;;;11.73;;
7045;SDS011;3564;53.326;10.356;2022-11-15T04:44:01;15.97;;;11.10;;
7045;SDS011;3564;53.326;10.356;2022-11-15T04:46:26;15.77;;;12.03;;
7045;SDS011;3564;53.326;10.356;2022-11-15T04:48:52;15.97;;;12.40;;
7045;SDS011;3564;53.326;10.356;2022-11-15T04:51:18;17.87;;;12.23;;
7045;SDS011;3564;53.326;10.356;2022-11-15T04:53:44;15.37;;;12.10;;
7045;SDS011;3564;53.326;10.356;2022-11-15T04:56:09;16.50;;;12.63;;
7045;SDS011;3564;53.326;10.356;2022-11-15T04:58:36;17.63;;;12.03;;
7045;SDS011;3564;53.326;10.356;2022-11-15T05:01:08;17.60;;;13.47;;
7045;SDS011;3564;53.326;10.356;2022-11-15T05:03:42;17.63;;;12.17;;
7045;SDS011;3564;53.326;10.356;2022-11-15T05:06:27;15.67;;;11.70;;
7045;SDS011;3564;53.326;10.356;2022-11-15T05:08:53;16.30;;;11.87;;
7045;SDS011;3564;53.326;10.356;2022-11-15T05:11:19;16.70;;;12.23;;
7045;SDS011;3564;53.326;10.356;2022-11-15T05:13:45;15.10;;;10.87;;
7045;SDS011;3564;53.326;10.356;2022-11-15T05:16:11;16.70;;;12.63;;
7045;SDS011;3564;53.326;10.356;2022-11-15T05:18:38;14.57;;;10.77;;
7045;SDS011;3564;53.326;10.356;2022-11-15T05:21:07;15.13;;;11.70;;
7045;SDS011;3564;53.326;10.356;2022-11-15T05:23:34;15.27;;;11.57;;
7045;SDS011;3564;53.326;10.356;2022-11-15T05:26:00;14.53;;;11.60;;
7045;SDS011;3564;53.326;10.356;2022-11-15T05:28:27;16.97;;;11.80;;
7045;SDS011;3564;53.326;10.356;2022-11-15T05:30:52;14.80;;;10.97;;
7045;SDS011;3564;53.326;10.356;2022-11-15T05:33:18;16.07;;;11.60;;
7045;SDS011;3564;53.326;10.356;2022-11-15T05:35:45;15.43;;;11.93;;
7045;SDS011;3564;53.326;10.356;2022-11-15T05:38:15;14.27;;;11.07;;
7045;SDS011;3564;53.326;10.356;2022-11-15T05:40:41;14.23;;;11.50;;
7045;SDS011;3564;53.326;10.356;2022-11-15T05:43:06;16.10;;;11.60;;
7045;SDS011;3564;53.326;10.356;2022-11-15T05:45:32;15.73;;;11.33;;
7045;SDS011;3564;53.326;10.356;2022-11-15T05:47:59;15.83;;;10.87;;
7045;SDS011;3564;53.326;10.356;2022-11-15T05:50:35;14.50;;;10.80;;
7045;SDS011;3564;53.326;10.356;2022-11-15T05:53:03;15.57;;;11.23;;
7045;SDS011;3564;53.326;10.356;2022-11-15T05:55:29;14.83;;;11.03;;
7045;SDS011;3564;53.326;10.356;2022-11-15T05:57:55;14.97;;;11.53;;
7045;SDS011;3564;53.326;10.356;2022-11-15T06:00:21;16.50;;;11.60;;
7045;SDS011;3564;53.326;10.356;2022-11-15T06:02:46;13.87;;;11.20;;
7045;SDS011;3564;53.326;10.356;2022-11-15T06:05:12;17.43;;;11.30;;
7045;SDS011;3564;53.326;10.356;2022-11-15T06:07:37;14.67;;;11.63;;
7045;SDS011;3564;53.326;10.356;2022-11-15T06:10:03;15.07;;;11.40;;
7045;SDS011;3564;53.326;10.356;2022-11-15T06:12:29;17.33;;;11.50;;
7045;SDS011;3564;53.326;10.356;2022-11-15T06:14:54;18.73;;;12.80;;
7045;SDS011;3564;53.326;10.356;2022-11-15T06:17:20;14.73;;;11.50;;
7045;SDS011;3564;53.326;10.356;2022-11-15T06:19:45;16.17;;;12.37;;
7045;SDS011;3564;53.326;10.356;2022-11-15T06:22:11;17.30;;;12.07;;
7045;SDS011;3564;53.326;10.356;2022-11-15T06:24:36;18.20;;;12.30;;
7045;SDS011;3564;53.326;10.356;2022-11-15T06:27:02;15.40;;;11.57;;
7045;SDS011;3564;53.326;10.356;2022-11-15T06:29:28;15.53;;;11.63;;
7045;SDS011;3564;53.326;10.356;2022-11-15T06:31:53;18.27;;;11.77;;
7045;SDS011;3564;53.326;10.356;2022-11-15T06:34:19;14.10;;;10.90;;
7045;SDS011;3564;53.326;10.356;2022-11-15T06:36:44;18.13;;;11.83;;
7045;SDS011;3564;53.326;10.356;2022-11-15T06:39:10;14.80;;;11.37;;
7045;SDS011;3564;53.326;10.356;2022-11-15T06:41:35;16.10;;;12.30;;
7045;SDS011;3564;53.326;10.356;2022-11-15T06:44:01;16.10;;;12.17;;
7045;SDS011;3564;53.326;10.356;2022-11-15T06:46:27;15.40;;;12.00;;
7045;SDS011;3564;53.326;10.356;2022-11-15T06:48:53;16.53;;;12.13;;
7045;SDS011;3564;53.326;10.356;2022-11-15T06:51:19;18.37;;;12.27;;
7045;SDS011;3564;53.326;10.356;2022-11-15T06:53:45;13.77;;;11.03;;
7045;SDS011;3564;53.326;10.356;2022-11-15T06:56:11;16.87;;;12.50;;
7045;SDS011;3564;53.326;10.356;2022-11-15T06:58:36;17.77;;;12.23;;
7045;SDS011;3564;53.326;10.356;2022-11-15T07:01:03;16.93;;;12.67;;
7045;SDS011;3564;53.326;10.356;2022-11-15T07:03:36;15.87;;;11.90;;
7045;SDS011;3564;53.326;10.356;2022-11-15T07:06:06;18.20;;;12.43;;
7045;SDS011;3564;53.326;10.356;2022-11-15T07:08:33;13.40;;;10.90;;
7045;SDS011;3564;53.326;10.356;2022-11-15T07:10:59;15.73;;;11.30;;
7045;SDS011;3564;53.326;10.356;2022-11-15T07:13:27;15.37;;;12.40;;
7045;SDS011;3564;53.326;10.356;2022-11-15T07:15:53;17.13;;;12.70;;
7045;SDS011;3564;53.326;10.356;2022-11-15T07:18:19;13.07;;;11.03;;
7045;SDS011;3564;53.326;10.356;2022-11-15T07:20:45;15.60;;;11.70;;
7045;SDS011;3564;53.326;10.356;2022-11-15T07:23:10;15.00;;;11.73;;
7045;SDS011;3564;53.326;10.356;2022-11-15T07:25:36;15.57;;;11.97;;
7045;SDS011;3564;53.326;10.356;2022-11-15T07:28:01;20.70;;;14.07;;
7045;SDS011;3564;53.326;10.356;2022-11-15T07:30:27;20.43;;;13.00;;
7045;SDS011;3564;53.326;10.356;2022-11-15T07:32:57;16.27;;;12.07;;
7045;SDS011;3564;53.326;10.356;2022-11-15T07:35:24;16.93;;;12.43;;
7045;SDS011;3564;53.326;10.356;2022-11-15T07:40:20;17.93;;;12.83;;
7045;SDS011;3564;53.326;10.356;2022-11-15T07:42:47;16.37;;;11.77;;
7045;SDS011;3564;53.326;10.356;2022-11-15T07:45:19;17.83;;;12.40;;
7045;SDS011;3564;53.326;10.356;2022-11-15T07:47:46;17.30;;;12.13;;
7045;SDS011;3564;53.326;10.356;2022-11-15T07:50:13;16.63;;;12.17;;
7045;SDS011;3564;53.326;10.356;2022-11-15T07:52:38;16.37;;;12.50;;
7045;SDS011;3564;53.326;10.356;2022-11-15T07:55:04;17.83;;;12.50;;
7045;SDS011;3564;53.326;10.356;2022-11-15T07:57:30;17.13;;;12.00;;
7045;SDS011;3564;53.326;10.356;2022-11-15T07:59:55;17.50;;;12.80;;
7045;SDS011;3564;53.326;10.356;2022-11-15T08:02:21;18.10;;;12.90;;
7045;SDS011;3564;53.326;10.356;2022-11-15T08:04:47;17.20;;;12.87;;
7045;SDS011;3564;53.326;10.356;2022-11-15T08:07:12;20.67;;;12.23;;
7045;SDS011;3564;53.326;10.356;2022-11-15T08:09:38;18.13;;;12.97;;
7045;SDS011;3564;53.326;10.356;2022-11-15T08:12:04;16.50;;;12.03;;
7045;SDS011;3564;53.326;10.356;2022-11-15T08:14:30;14.93;;;11.90;;
7045;SDS011;3564;53.326;10.356;2022-11-15T08:16:56;19.03;;;12.97;;
7045;SDS011;3564;53.326;10.356;2022-11-15T08:19:21;17.63;;;13.10;;
7045;SDS011;3564;53.326;10.356;2022-11-15T08:21:47;14.97;;;12.17;;
7045;SDS011;3564;53.326;10.356;2022-11-15T08:24:13;15.47;;;12.13;;
7045;SDS011;3564;53.326;10.356;2022-11-15T08:26:38;17.50;;;12.27;;
7045;SDS011;3564;53.326;10.356;2022-11-15T08:29:04;16.30;;;11.90;;
7045;SDS011;3564;53.326;10.356;2022-11-15T08:31:30;16.57;;;12.97;;
7045;SDS011;3564;53.326;10.356;2022-11-15T08:33:56;16.53;;;12.20;;
7045;SDS011;3564;53.326;10.356;2022-11-15T08:36:21;17.27;;;12.10;;
7045;SDS011;3564;53.326;10.356;2022-11-15T08:38:47;16.67;;;11.30;;
7045;SDS011;3564;53.326;10.356;2022-11-15T08:41:18;17.00;;;12.17;;
7045;SDS011;3564;53.326;10.356;2022-11-15T08:43:50;16.27;;;11.83;;
7045;SDS011;3564;53.326;10.356;2022-11-15T08:46:16;16.80;;;11.53;;
7045;SDS011;3564;53.326;10.356;2022-11-15T08:48:44;17.50;;;12.10;;
7045;SDS011;3564;53.326;10.356;2022-11-15T08:51:10;17.30;;;12.03;;
7045;SDS011;3564;53.326;10.356;2022-11-15T08:53:35;19.40;;;11.77;;
7045;SDS011;3564;53.326;10.356;2022-11-15T08:56:01;15.57;;;10.70;;
7045;SDS011;3564;53.326;10.356;2022-11-15T08:58:27;13.57;;;10.97;;
7045;SDS011;3564;53.326;10.356;2022-11-15T09:00:53;13.27;;;10.83;;
7045;SDS011;3564;53.326;10.356;2022-11-15T09:03:20;18.07;;;11.97;;
7045;SDS011;3564;53.326;10.356;2022-11-15T09:05:46;18.03;;;12.30;;
7045;SDS011;3564;53.326;10.356;2022-11-15T09:08:11;16.90;;;12.07;;
7045;SDS011;3564;53.326;10.356;2022-11-15T09:10:37;14.73;;;11.67;;
7045;SDS011;3564;53.326;10.356;2022-11-15T09:13:03;17.73;;;11.77;;
7045;SDS011;3564;53.326;10.356;2022-11-15T09:15:29;16.23;;;11.07;;
7045;SDS011;3564;53.326;10.356;2022-11-15T09:17:57;16.10;;;12.17;;
7045;SDS011;3564;53.326;10.356;2022-11-15T09:20:24;15.87;;;11.47;;
7045;SDS011;3564;53.326;10.356;2022-11-15T09:22:50;15.77;;;11.33;;
7045;SDS011;3564;53.326;10.356;2022-11-15T09:25:15;14.23;;;10.73;;
7045;SDS011;3564;53.326;10.356;2022-11-15T09:27:41;16.50;;;10.47;;
7045;SDS011;3564;53.326;10.356;2022-11-15T09:30:06;15.60;;;11.03;;
7045;SDS011;3564;53.326;10.356;2022-11-15T09:32:32;13.83;;;10.63;;
7045;SDS011;3564;53.326;10.356;2022-11-15T09:34:58;13.23;;;9.90;;
7045;SDS011;3564;53.326;10.356;2022-11-15T09:37:23;14.47;;;10.80;;
7045;SDS011;3564;53.326;10.356;2022-11-15T09:39:49;13.90;;;10.47;;
7045;SDS011;3564;53.326;10.356;2022-11-15T09:42:21;13.00;;;10.10;;
7045;SDS011;3564;53.326;10.356;2022-11-15T09:50:46;11.00;;;8.90;;
7045;SDS011;3564;53.326;10.356;2022-11-15T09:53:18;13.20;;;9.90;;
7045;SDS011;3564;53.326;10.356;2022-11-15T09:56:02;11.87;;;8.70;;
7045;SDS011;3564;53.326;10.356;2022-11-15T09:58:39;13.10;;;8.87;;
7045;SDS011;3564;53.326;10.356;2022-11-15T10:01:25;12.10;;;9.43;;
7045;SDS011;3564;53.326;10.356;2022-11-15T10:03:56;11.13;;;8.73;;
7045;SDS011;3564;53.326;10.356;2022-11-15T10:06:25;13.40;;;9.27;;
7045;SDS011;3564;53.326;10.356;2022-11-15T10:09:01;12.83;;;9.47;;
7045;SDS011;3564;53.326;10.356;2022-11-15T10:11:35;15.20;;;10.20;;
7045;SDS011;3564;53.326;10.356;2022-11-15T10:14:07;13.40;;;10.13;;
7045;SDS011;3564;53.326;10.356;2022-11-15T10:19:33;13.80;;;10.87;;
7045;SDS011;3564;53.326;10.356;2022-11-15T10:22:15;13.60;;;10.27;;
7045;SDS011;3564;53.326;10.356;2022-11-15T10:24:47;13.60;;;9.73;;
7045;SDS011;3564;53.326;10.356;2022-11-15T10:27:14;14.33;;;10.30;;
7045;SDS011;3564;53.326;10.356;2022-11-15T10:29:46;13.13;;;8.93;;
7045;SDS011;3564;53.326;10.356;2022-11-15T10:32:14;13.03;;;9.80;;
7045;SDS011;3564;53.326;10.356;2022-11-15T10:34:45;13.30;;;9.43;;
7045;SDS011;3564;53.326;10.356;2022-11-15T10:37:11;13.97;;;11.03;;
7045;SDS011;3564;53.326;10.356;2022-11-15T10:39:36;17.30;;;12.03;;
7045;SDS011;3564;53.326;10.356;2022-11-15T10:45:08;20.60;;;13.90;;
7045;SDS011;3564;53.326;10.356;2022-11-15T10:47:53;17.43;;;13.80;;
7045;SDS011;3564;53.326;10.356;2022-11-15T10:50:27;14.83;;;11.73;;
7045;SDS011;3564;53.326;10.356;2022-11-15T10:53:03;23.50;;;15.67;;
7045;SDS011;3564;53.326;10.356;2022-11-15T10:55:37;20.77;;;14.93;;
7045;SDS011;3564;53.326;10.356;2022-11-15T11:00:52;14.87;;;12.43;;
7045;SDS011;3564;53.326;10.356;2022-11-15T11:03:27;13.80;;;10.80;;
7045;SDS011;3564;53.326;10.356;2022-11-15T11:06:18;14.23;;;10.50;;
7045;SDS011;3564;53.326;10.356;2022-11-15T11:08:57;14.73;;;10.53;;
7045;SDS011;3564;53.326;10.356;2022-11-15T11:11:25;22.63;;;12.80;;
7045;SDS011;3564;53.326;10.356;2022-11-15T11:14:12;15.90;;;11.57;;
7045;SDS011;3564;53.326;10.356;2022-11-15T11:17:30;15.57;;;10.10;;
7045;SDS011;3564;53.326;10.356;2022-11-15T11:22:55;16.53;;;10.53;;
7045;SDS011;3564;53.326;10.356;2022-11-15T11:37:15;14.23;;;10.23;;
7045;SDS011;3564;53.326;10.356;2022-11-15T11:40:00;13.70;;;10.20;;
7045;SDS011;3564;53.326;10.356;2022-11-15T11:42:35;13.23;;;9.93;;
7045;SDS011;3564;53.326;10.356;2022-11-15T11:45:21;12.03;;;9.17;;
7045;SDS011;3564;53.326;10.356;2022-11-15T11:51:05;15.13;;;11.00;;
7045;SDS011;3564;53.326;10.356;2022-11-15T11:53:39;12.93;;;9.77;;
7045;SDS011;3564;53.326;10.356;2022-11-15T11:56:22;11.87;;;9.83;;
7045;SDS011;3564;53.326;10.356;2022-11-15T11:59:01;13.77;;;10.40;;
7045;SDS011;3564;53.326;10.356;2022-11-15T12:01:39;12.37;;;8.80;;
7045;SDS011;3564;53.326;10.356;2022-11-15T12:06:53;11.43;;;8.27;;
7045;SDS011;3564;53.326;10.356;2022-11-15T12:09:43;8.57;;;7.17;;
7045;SDS011;3564;53.326;10.356;2022-11-15T12:14:48;7.23;;;6.03;;
7045;SDS011;3564;53.326;10.356;2022-11-15T12:17:16;7.50;;;6.53;;
7045;SDS011;3564;53.326;10.356;2022-11-15T12:19:46;8.20;;;6.23;;
7045;SDS011;3564;53.326;10.356;2022-11-15T12:22:13;8.03;;;5.90;;
7045;SDS011;3564;53.326;10.356;2022-11-15T12:24:54;6.90;;;5.87;;
7045;SDS011;3564;53.326;10.356;2022-11-15T12:27:35;9.27;;;7.30;;
7045;SDS011;3564;53.326;10.356;2022-11-15T12:30:24;6.90;;;5.90;;
7045;SDS011;3564;53.326;10.356;2022-11-15T12:35:40;7.10;;;6.40;;
7045;SDS011;3564;53.326;10.356;2022-11-15T12:38:11;7.13;;;5.60;;
7045;SDS011;3564;53.326;10.356;2022-11-15T12:41:24;6.90;;;5.93;;
7045;SDS011;3564;53.326;10.356;2022-11-15T12:43:42;7.13;;;6.33;;
7045;SDS011;3564;53.326;10.356;2022-11-15T12:46:14;6.90;;;5.47;;
7045;SDS011;3564;53.326;10.356;2022-11-15T13:02:22;7.33;;;5.93;;
7045;SDS011;3564;53.326;10.356;2022-11-15T13:04:53;9.00;;;6.07;;
7045;SDS011;3564;53.326;10.356;2022-11-15T13:12:52;7.10;;;6.07;;
7045;SDS011;3564;53.326;10.356;2022-11-15T13:18:18;7.33;;;6.13;;
7045;SDS011;3564;53.326;10.356;2022-11-15T13:20:56;8.77;;;6.13;;
7045;SDS011;3564;53.326;10.356;2022-11-15T13:23:21;8.60;;;6.93;;
7045;SDS011;3564;53.326;10.356;2022-11-15T13:28:35;8.47;;;7.37;;
7045;SDS011;3564;53.326;10.356;2022-11-15T13:34:12;11.53;;;7.87;;
7045;SDS011;3564;53.326;10.356;2022-11-15T13:36:42;9.83;;;8.30;;
7045;SDS011;3564;53.326;10.356;2022-11-15T13:41:56;11.83;;;7.37;;
7045;SDS011;3564;53.326;10.356;2022-11-15T13:44:23;8.37;;;7.43;;
7045;SDS011;3564;53.326;10.356;2022-11-15T13:47:02;8.73;;;6.97;;
7045;SDS011;3564;53.326;10.356;2022-11-15T13:49:32;11.77;;;7.23;;
7045;SDS011;3564;53.326;10.356;2022-11-15T13:52:00;9.93;;;7.23;;
7045;SDS011;3564;53.326;10.356;2022-11-15T13:54:30;8.97;;;7.30;;
7045;SDS011;3564;53.326;10.356;2022-11-15T13:57:19;11.40;;;7.20;;
7045;SDS011;3564;53.326;10.356;2022-11-15T13:59:54;9.07;;;6.93;;
7045;SDS011;3564;53.326;10.356;2022-11-15T14:02:26;7.60;;;6.33;;
7045;SDS011;3564;53.326;10.356;2022-11-15T14:07:53;10.40;;;7.57;;
7045;SDS011;3564;53.326;10.356;2022-11-15T14:10:32;14.43;;;10.67;;
7045;SDS011;3564;53.326;10.356;2022-11-15T14:13:02;17.00;;;12.43;;
7045;SDS011;3564;53.326;10.356;2022-11-15T14:15:33;14.37;;;11.77;;
7045;SDS011;3564;53.326;10.356;2022-11-15T14:18:02;15.80;;;10.43;;
7045;SDS011;3564;53.326;10.356;2022-11-15T14:20:32;14.00;;;10.07;;
7045;SDS011;3564;53.326;10.356;2022-11-15T14:23:00;11.33;;;8.30;;
7045;SDS011;3564;53.326;10.356;2022-11-15T14:25:32;11.43;;;7.70;;
7045;SDS011;3564;53.326;10.356;2022-11-15T14:28:14;12.93;;;8.23;;
7045;SDS011;3564;53.326;10.356;2022-11-15T14:30:54;12.63;;;9.13;;
7045;SDS011;3564;53.326;10.356;2022-11-15T14:36:02;18.23;;;12.20;;
7045;SDS011;3564;53.326;10.356;2022-11-15T14:38:36;19.47;;;14.20;;
7045;SDS011;3564;53.326;10.356;2022-11-15T14:41:02;18.80;;;13.67;;
7045;SDS011;3564;53.326;10.356;2022-11-15T14:43:27;20.50;;;14.53;;
7045;SDS011;3564;53.326;10.356;2022-11-15T14:45:53;21.60;;;14.60;;
7045;SDS011;3564;53.326;10.356;2022-11-15T14:48:19;23.10;;;15.20;;
7045;SDS011;3564;53.326;10.356;2022-11-15T14:50:44;14.43;;;9.43;;
7045;SDS011;3564;53.326;10.356;2022-11-15T14:53:16;10.47;;;7.93;;
7045;SDS011;3564;53.326;10.356;2022-11-15T14:55:42;9.80;;;7.00;;
7045;SDS011;3564;53.326;10.356;2022-11-15T14:58:08;8.73;;;6.17;;
7045;SDS011;3564;53.326;10.356;2022-11-15T15:00:39;11.60;;;6.87;;
7045;SDS011;3564;53.326;10.356;2022-11-15T15:03:06;17.83;;;12.23;;
7045;SDS011;3564;53.326;10.356;2022-11-15T15:05:39;18.63;;;12.03;;
7045;SDS011;3564;53.326;10.356;2022-11-15T15:08:06;18.20;;;11.77;;
7045;SDS011;3564;53.326;10.356;2022-11-15T15:10:34;17.77;;;11.47;;
7045;SDS011;3564;53.326;10.356;2022-11-15T15:13:02;23.20;;;15.00;;
7045;SDS011;3564;53.326;10.356;2022-11-15T15:15:33;31.20;;;19.47;;
7045;SDS011;3564;53.326;10.356;2022-11-15T15:18:01;24.03;;;14.53;;
7045;SDS011;3564;53.326;10.356;2022-11-15T15:20:27;33.67;;;19.70;;
7045;SDS011;3564;53.326;10.356;2022-11-15T15:22:54;33.30;;;19.53;;
7045;SDS011;3564;53.326;10.356;2022-11-15T15:27:52;22.80;;;14.40;;
7045;SDS011;3564;53.326;10.356;2022-11-15T15:30:18;23.13;;;14.90;;
7045;SDS011;3564;53.326;10.356;2022-11-15T15:32:43;18.47;;;13.17;;
7045;SDS011;3564;53.326;10.356;2022-11-15T15:35:11;17.97;;;12.33;;
7045;SDS011;3564;53.326;10.356;2022-11-15T15:37:38;15.50;;;10.50;;
7045;SDS011;3564;53.326;10.356;2022-11-15T15:40:10;11.57;;;8.73;;
7045;SDS011;3564;53.326;10.356;2022-11-15T15:42:41;12.60;;;9.03;;
7045;SDS011;3564;53.326;10.356;2022-11-15T15:45:07;11.57;;;9.30;;
7045;SDS011;3564;53.326;10.356;2022-11-15T15:47:34;12.90;;;8.60;;
7045;SDS011;3564;53.326;10.356;2022-11-15T15:50:00;12.73;;;7.90;;
7045;SDS011;3564;53.326;10.356;2022-11-15T15:52:25;10.53;;;7.67;;
7045;SDS011;3564;53.326;10.356;2022-11-15T15:54:51;9.83;;;7.57;;
7045;SDS011;3564;53.326;10.356;2022-11-15T15:57:16;9.60;;;7.20;;
7045;SDS011;3564;53.326;10.356;2022-11-15T15:59:42;11.53;;;7.83;;
7045;SDS011;3564;53.326;10.356;2022-11-15T16:02:08;10.90;;;7.73;;
7045;SDS011;3564;53.326;10.356;2022-11-15T16:04:36;12.63;;;8.20;;
7045;SDS011;3564;53.326;10.356;2022-11-15T16:07:02;9.10;;;7.57;;
7045;SDS011;3564;53.326;10.356;2022-11-15T16:09:29;9.00;;;7.67;;
7045;SDS011;3564;53.326;10.356;2022-11-15T16:12:13;13.10;;;9.53;;
7045;SDS011;3564;53.326;10.356;2022-11-15T16:14:41;9.67;;;8.27;;
7045;SDS011;3564;53.326;10.356;2022-11-15T16:17:09;10.43;;;8.77;;
7045;SDS011;3564;53.326;10.356;2022-11-15T16:19:46;13.10;;;9.03;;
7045;SDS011;3564;53.326;10.356;2022-11-15T16:22:12;10.37;;;8.13;;
7045;SDS011;3564;53.326;10.356;2022-11-15T16:24:37;12.93;;;9.27;;
7045;SDS011;3564;53.326;10.356;2022-11-15T16:27:03;17.40;;;12.47;;
7045;SDS011;3564;53.326;10.356;2022-11-15T16:29:28;25.70;;;16.60;;
7045;SDS011;3564;53.326;10.356;2022-11-15T16:31:54;34.50;;;22.63;;
7045;SDS011;3564;53.326;10.356;2022-11-15T16:34:20;30.87;;;22.70;;
7045;SDS011;3564;53.326;10.356;2022-11-15T16:36:47;29.57;;;21.70;;
7045;SDS011;3564;53.326;10.356;2022-11-15T16:39:13;23.70;;;19.53;;
7045;SDS011;3564;53.326;10.356;2022-11-15T16:41:40;25.83;;;20.00;;
7045;SDS011;3564;53.326;10.356;2022-11-15T16:44:08;27.20;;;21.30;;